createdAt,value
2023-04-23T00:02:04.543Z,86.30
2023-04-23T00:04:46.727Z,86.30
2023-04-23T00:07:17.507Z,86.20
2023-04-23T00:09:47.474Z,86.20
2023-04-23T00:12:16.298Z,86.10
2023-04-23T00:14:45.011Z,86.30
2023-04-23T00:17:13.357Z,86.30
2023-04-23T00:19:41.696Z,86.40
2023-04-23T00:22:10.030Z,86.60
2023-04-23T00:24:39.779Z,86.60
2023-04-23T00:27:08.276Z,86.60
2023-04-23T00:29:36.659Z,86.60
2023-04-23T00:32:05.310Z,86.50
2023-04-23T00:34:33.603Z,86.50
2023-04-23T00:37:05.892Z,86.50
2023-04-23T00:39:35.281Z,86.50
2023-04-23T00:42:11.579Z,86.40
2023-04-23T00:44:40.938Z,86.50
2023-04-23T00:47:09.668Z,86.50
2023-04-23T00:49:40.192Z,86.60
2023-04-23T00:52:08.583Z,86.60
2023-04-23T00:54:36.881Z,86.60
2023-04-23T00:57:08.081Z,86.80
2023-04-23T00:59:37.355Z,86.90
2023-04-23T01:02:05.927Z,86.90
2023-04-23T01:04:34.911Z,86.90
2023-04-23T01:07:03.757Z,86.90
2023-04-23T01:09:33.597Z,86.90
2023-04-23T01:12:03.728Z,87.00
2023-04-23T01:14:33.800Z,86.90
2023-04-23T01:17:02.209Z,86.90
2023-04-23T01:19:30.892Z,87.00
2023-04-23T01:22:01.297Z,87.00
2023-04-23T01:24:32.340Z,87.00
2023-04-23T01:27:01.807Z,87.00
2023-04-23T01:29:31.216Z,87.00
2023-04-23T01:32:00.501Z,87.10
2023-04-23T01:34:28.875Z,87.00
2023-04-23T01:36:58.197Z,87.00
2023-04-23T01:39:26.780Z,87.00
2023-04-23T01:41:57.410Z,87.00
2023-04-23T01:44:25.869Z,87.00
2023-04-23T01:46:54.806Z,87.00
2023-04-23T01:49:23.237Z,87.10
2023-04-23T01:51:51.554Z,87.10
2023-04-23T01:54:19.893Z,87.10
2023-04-23T01:56:48.233Z,87.10
2023-04-23T01:59:18.011Z,87.20
2023-04-23T02:01:47.391Z,87.20
2023-04-23T02:04:17.300Z,87.30
2023-04-23T02:06:48.329Z,87.40
2023-04-23T02:09:16.710Z,87.30
2023-04-23T02:11:45.162Z,87.30
2023-04-23T02:14:13.846Z,88.20
2023-04-23T02:16:43.584Z,87.50
2023-04-23T02:19:14.106Z,87.50
2023-04-23T02:21:44.385Z,87.60
2023-04-23T02:24:12.649Z,87.60
2023-04-23T02:26:41.095Z,87.70
2023-04-23T02:29:10.561Z,87.70
2023-04-23T02:31:38.933Z,88.50
2023-04-23T02:34:08.607Z,87.60
2023-04-23T02:36:36.912Z,87.70
2023-04-23T02:39:05.500Z,87.60
2023-04-23T02:41:33.783Z,87.60
2023-04-23T02:44:02.087Z,87.90
2023-04-23T02:46:31.832Z,87.90
2023-04-23T02:49:00.265Z,88.60
2023-04-23T02:51:30.032Z,87.80
2023-04-23T02:53:58.581Z,87.80
2023-04-23T02:56:26.956Z,88.00
2023-04-23T02:58:55.280Z,87.90
2023-04-23T03:01:23.630Z,88.00
2023-04-23T03:03:52.535Z,87.90
2023-04-23T03:06:21.226Z,87.80
2023-04-23T03:08:51.007Z,87.80
2023-04-23T03:11:19.319Z,87.80
2023-04-23T03:13:47.643Z,87.70
2023-04-23T03:16:16.136Z,87.70
2023-04-23T03:18:44.506Z,87.70
2023-04-23T03:21:13.016Z,87.70
2023-04-23T03:23:41.451Z,87.70
2023-04-23T03:26:11.273Z,87.80
2023-04-23T03:28:39.591Z,87.80
2023-04-23T03:31:08.070Z,87.70
2023-04-23T03:33:36.530Z,87.80
2023-04-23T03:36:05.323Z,88.00
2023-04-23T03:38:33.641Z,87.80
2023-04-23T03:41:01.950Z,87.90
2023-04-23T03:43:31.571Z,88.00
2023-04-23T03:45:59.988Z,88.10
2023-04-23T03:48:28.348Z,88.10
2023-04-23T03:50:56.703Z,88.10
2023-04-23T03:53:25.103Z,88.10
2023-04-23T03:55:53.459Z,88.10
2023-04-23T03:58:21.722Z,88.50
2023-04-23T04:00:51.855Z,88.30
2023-04-23T04:03:20.311Z,88.30
2023-04-23T04:05:48.762Z,88.30
2023-04-23T04:08:17.145Z,88.30
2023-04-23T04:10:45.491Z,88.30
2023-04-23T04:13:13.793Z,89.30
2023-04-23T04:15:42.025Z,88.60
2023-04-23T04:18:11.823Z,88.70
2023-04-23T04:20:40.160Z,88.70
2023-04-23T04:23:08.438Z,88.80
2023-04-23T04:25:40.016Z,88.80
2023-04-23T04:28:09.525Z,88.90
2023-04-23T04:30:38.241Z,88.90
2023-04-23T04:33:06.617Z,89.00
2023-04-23T04:35:36.445Z,89.10
2023-04-23T04:38:04.838Z,89.20
2023-04-23T04:40:33.861Z,89.30
2023-04-23T04:43:02.309Z,89.30
2023-04-23T04:45:30.636Z,89.50
2023-04-23T04:47:58.964Z,89.60
2023-04-23T04:50:27.383Z,89.60
2023-04-23T04:52:57.231Z,89.70
2023-04-23T04:55:25.739Z,89.70
2023-04-23T04:57:56.513Z,89.80
2023-04-23T05:00:28.019Z,89.70
2023-04-23T05:02:57.552Z,90.30
2023-04-23T05:05:27.793Z,89.90
2023-04-23T05:07:59.412Z,89.80
2023-04-23T05:10:27.723Z,89.80
2023-04-23T05:12:56.075Z,89.80
2023-04-23T05:15:29.373Z,89.90
2023-04-23T05:17:57.872Z,89.80
2023-04-23T05:20:27.362Z,89.80
2023-04-23T05:22:59.484Z,90.00
2023-04-23T05:25:27.983Z,90.00
2023-04-23T05:27:56.393Z,90.00
2023-04-23T05:30:25.482Z,89.80
2023-04-23T05:32:53.940Z,89.60
2023-04-23T05:35:22.448Z,89.60
2023-04-23T05:37:51.464Z,89.40
2023-04-23T05:40:21.361Z,89.10
2023-04-23T05:42:49.699Z,88.80
2023-04-23T05:45:18.048Z,88.70
2023-04-23T05:47:46.392Z,88.60
2023-04-23T05:50:14.733Z,88.40
2023-04-23T05:52:43.074Z,88.10
2023-04-23T05:55:11.931Z,87.90
2023-04-23T05:57:41.578Z,87.50
2023-04-23T06:00:11.939Z,87.20
2023-04-23T06:02:40.649Z,87.20
2023-04-23T06:05:10.204Z,87.20
2023-04-23T06:07:38.865Z,87.10
2023-04-23T06:10:08.533Z,86.40
2023-04-23T06:12:39.307Z,86.20
2023-04-23T06:15:11.459Z,85.80
2023-04-23T06:17:39.965Z,86.10
2023-04-23T06:20:12.017Z,86.20
2023-04-23T06:22:40.570Z,85.80
2023-04-23T06:25:09.745Z,85.50
2023-04-23T06:27:38.034Z,84.60
2023-04-23T06:30:09.269Z,84.50
2023-04-23T06:32:37.708Z,84.30
2023-04-23T06:35:07.621Z,83.90
2023-04-23T06:37:36.720Z,84.30
2023-04-23T06:40:05.520Z,83.90
2023-04-23T06:42:33.918Z,83.40
2023-04-23T06:45:06.281Z,82.80
2023-04-23T06:47:36.269Z,83.00
2023-04-23T06:50:05.876Z,82.20
2023-04-23T06:52:34.172Z,82.40
2023-04-23T06:55:02.461Z,82.10
2023-04-23T06:57:30.758Z,82.20
2023-04-23T06:59:59.086Z,81.30
2023-04-23T07:02:27.563Z,81.10
2023-04-23T07:04:57.348Z,79.80
2023-04-23T07:07:26.127Z,80.30
2023-04-23T07:09:54.457Z,80.60
2023-04-23T07:12:22.763Z,79.80
2023-04-23T07:14:53.630Z,75.30
2023-04-23T07:17:22.089Z,76.40
2023-04-23T07:19:50.727Z,76.90
2023-04-23T07:22:20.486Z,76.70
2023-04-23T07:24:48.870Z,76.70
2023-04-23T07:27:17.219Z,75.00
2023-04-23T07:29:45.610Z,75.40
2023-04-23T07:32:14.067Z,75.10
2023-04-23T07:34:42.806Z,75.10
2023-04-23T07:37:11.821Z,71.00
2023-04-23T07:39:44.007Z,71.00
2023-04-23T07:42:12.734Z,72.30
2023-04-23T07:44:41.246Z,73.00
2023-04-23T07:47:09.649Z,72.30
2023-04-23T07:49:38.066Z,72.90
2023-04-23T07:52:06.439Z,71.40
2023-04-23T07:54:34.811Z,72.10
2023-04-23T07:57:04.532Z,70.30
2023-04-23T07:59:33.999Z,68.40
2023-04-23T08:02:02.363Z,67.90
2023-04-23T08:04:30.891Z,68.40
2023-04-23T08:06:59.692Z,69.10
2023-04-23T08:09:28.066Z,67.30
2023-04-23T08:11:57.675Z,65.50
2023-04-23T08:14:27.515Z,67.20
2023-04-23T08:16:55.898Z,67.80
2023-04-23T08:19:24.263Z,66.60
2023-04-23T08:21:53.221Z,66.10
2023-04-23T08:24:21.667Z,66.20
2023-04-23T08:26:50.032Z,66.40
2023-04-23T08:29:18.351Z,65.30
2023-04-23T08:31:56.222Z,66.50
2023-04-23T08:34:24.529Z,66.50
2023-04-23T08:36:53.036Z,67.00
2023-04-23T08:39:22.094Z,66.10
2023-04-23T08:41:55.976Z,65.20
2023-04-23T08:44:26.366Z,66.00
2023-04-23T08:46:56.867Z,66.30
2023-04-23T08:49:26.624Z,65.30
2023-04-23T08:51:55.704Z,66.00
2023-04-23T08:54:28.054Z,66.40
2023-04-23T08:56:58.797Z,65.80
2023-04-23T08:59:27.992Z,66.40
2023-04-23T09:01:59.855Z,65.90
2023-04-23T09:04:28.793Z,65.20
2023-04-23T09:06:57.592Z,62.90
2023-04-23T09:09:28.722Z,63.30
2023-04-23T09:11:57.676Z,62.50
2023-04-23T09:14:26.800Z,62.50
2023-04-23T09:16:57.333Z,63.10
2023-04-23T09:19:28.712Z,60.10
2023-04-23T09:21:57.518Z,60.00
2023-04-23T09:24:26.536Z,60.60
2023-04-23T09:26:55.175Z,61.40
2023-04-23T09:29:24.565Z,62.10
2023-04-23T09:31:54.411Z,59.40
2023-04-23T09:34:26.654Z,59.70
2023-04-23T09:36:55.609Z,59.80
2023-04-23T09:39:25.128Z,60.00
2023-04-23T09:41:54.545Z,59.70
2023-04-23T09:44:24.108Z,60.40
2023-04-23T09:47:09.829Z,60.80
2023-04-23T09:49:48.820Z,58.60
2023-04-23T09:52:18.291Z,59.30
2023-04-23T09:54:47.861Z,59.60
2023-04-23T09:57:16.283Z,57.30
2023-04-23T09:59:47.643Z,57.70
2023-04-23T10:02:19.166Z,58.50
2023-04-23T10:05:00.704Z,57.80
2023-04-23T10:07:36.026Z,58.80
2023-04-23T10:10:04.662Z,58.80
2023-04-23T10:12:52.069Z,57.90
2023-04-23T10:15:21.711Z,58.00
2023-04-23T10:17:51.457Z,57.80
2023-04-23T10:20:23.419Z,57.80
2023-04-23T10:22:58.038Z,56.20
2023-04-23T10:25:26.682Z,56.90
2023-04-23T10:27:56.486Z,56.00
2023-04-23T10:30:25.104Z,55.50
2023-04-23T10:32:54.101Z,56.80
2023-04-23T10:35:23.894Z,56.70
2023-04-23T10:37:52.859Z,57.20
2023-04-23T10:40:25.860Z,57.80
2023-04-23T10:42:55.634Z,57.00
2023-04-23T10:45:25.570Z,57.30
2023-04-23T10:47:56.458Z,56.50
2023-04-23T10:50:31.264Z,56.40
2023-04-23T10:52:59.573Z,57.80
2023-04-23T10:55:39.562Z,57.50
2023-04-23T10:58:09.003Z,54.90
2023-04-23T11:00:47.733Z,54.90
2023-04-23T11:03:33.178Z,54.80
2023-04-23T11:06:04.891Z,55.40
2023-04-23T11:08:33.721Z,55.50
2023-04-23T11:11:03.234Z,56.00
2023-04-23T11:13:31.827Z,56.30
2023-04-23T11:16:22.650Z,56.00
2023-04-23T11:19:03.725Z,56.00
2023-04-23T11:22:02.396Z,56.40
2023-04-23T11:24:33.433Z,56.90
2023-04-23T11:27:03.052Z,56.90
2023-04-23T11:29:31.637Z,56.40
2023-04-23T11:32:03.454Z,56.10
2023-04-23T11:34:33.476Z,53.60
2023-04-23T11:37:05.118Z,52.90
2023-04-23T11:39:33.867Z,52.40
2023-04-23T11:42:03.542Z,53.40
2023-04-23T11:44:32.380Z,54.50
2023-04-23T11:47:03.097Z,54.70
2023-04-23T11:49:31.539Z,55.00
2023-04-23T11:52:02.983Z,53.10
2023-04-23T11:54:31.477Z,53.60
2023-04-23T11:57:00.139Z,53.40
2023-04-23T11:59:29.599Z,52.50
2023-04-23T12:01:59.597Z,53.40
2023-04-23T12:04:29.564Z,51.50
2023-04-23T12:06:59.088Z,50.30
2023-04-23T12:09:30.137Z,51.90
2023-04-23T12:11:59.430Z,52.40
2023-04-23T12:14:30.125Z,52.10
2023-04-23T12:17:09.567Z,50.50
2023-04-23T12:19:38.416Z,50.10
2023-04-23T12:22:08.569Z,51.20
2023-04-23T12:24:51.558Z,48.80
2023-04-23T12:27:22.318Z,50.20
2023-04-23T12:29:51.250Z,50.10
2023-04-23T12:32:23.064Z,50.70
2023-04-23T12:34:57.218Z,49.30
2023-04-23T12:37:27.279Z,49.40
2023-04-23T12:39:59.486Z,49.00
2023-04-23T12:42:28.050Z,48.60
2023-04-23T12:44:56.753Z,48.90
2023-04-23T12:47:25.205Z,49.40
2023-04-23T12:49:56.833Z,50.20
2023-04-23T12:52:25.202Z,49.80
2023-04-23T12:54:56.582Z,50.10
2023-04-23T12:57:27.708Z,49.90
2023-04-23T12:59:56.601Z,50.00
2023-04-23T13:02:26.771Z,47.30
2023-04-23T13:05:01.012Z,48.80
2023-04-23T13:07:29.663Z,49.20
2023-04-23T13:09:59.650Z,48.90
2023-04-23T13:12:29.394Z,48.40
2023-04-23T13:14:57.911Z,49.20
2023-04-23T13:17:26.713Z,49.20
2023-04-23T13:19:55.706Z,48.50
2023-04-23T13:22:28.534Z,47.80
2023-04-23T13:24:58.177Z,47.40
2023-04-23T13:27:27.094Z,46.90
2023-04-23T13:29:57.175Z,45.70
2023-04-23T13:32:27.465Z,45.20
2023-04-23T13:34:56.085Z,45.50
2023-04-23T13:37:26.586Z,46.00
2023-04-23T13:39:54.968Z,45.80
2023-04-23T13:42:23.303Z,45.60
2023-04-23T13:44:51.633Z,45.00
2023-04-23T13:47:21.440Z,44.60
2023-04-23T13:49:49.833Z,44.80
2023-04-23T13:52:18.358Z,42.20
2023-04-23T13:54:47.875Z,42.10
2023-04-23T13:57:21.554Z,43.10
2023-04-23T13:59:49.938Z,42.90
2023-04-23T14:02:18.417Z,43.00
2023-04-23T14:04:48.225Z,42.50
2023-04-23T14:07:16.596Z,43.40
2023-04-23T14:09:46.624Z,43.50
2023-04-23T14:12:14.986Z,43.60
2023-04-23T14:14:49.792Z,43.50
2023-04-23T14:17:19.345Z,43.10
2023-04-23T14:19:49.250Z,43.00
2023-04-23T14:22:17.576Z,42.40
2023-04-23T14:24:47.774Z,43.20
2023-04-23T14:27:16.178Z,42.80
2023-04-23T14:29:48.993Z,41.30
2023-04-23T14:32:17.404Z,43.50
2023-04-23T14:34:46.005Z,44.90
2023-04-23T14:37:17.598Z,46.20
2023-04-23T14:39:46.698Z,46.80
2023-04-23T14:42:15.165Z,46.30
2023-04-23T14:44:43.475Z,46.90
2023-04-23T14:47:14.993Z,47.80
2023-04-23T14:49:43.549Z,48.40
2023-04-23T14:52:12.166Z,48.60
2023-04-23T14:54:41.863Z,49.10
2023-04-23T14:57:10.157Z,49.00
2023-04-23T14:59:38.516Z,49.30
2023-04-23T15:02:06.944Z,49.60
2023-04-23T15:04:36.745Z,49.80
2023-04-23T15:07:05.076Z,50.40
2023-04-23T15:09:33.843Z,51.70
2023-04-23T15:12:04.710Z,51.00
2023-04-23T15:14:37.788Z,50.70
2023-04-23T15:17:06.133Z,50.80
2023-04-23T15:19:34.468Z,50.70
2023-04-23T15:22:02.974Z,51.00
2023-04-23T15:24:31.230Z,50.70
2023-04-23T15:27:00.871Z,50.80
2023-04-23T15:29:31.270Z,50.80
2023-04-23T15:31:59.752Z,51.30
2023-04-23T15:34:28.224Z,51.10
2023-04-23T15:36:57.087Z,51.50
2023-04-23T15:39:26.376Z,51.70
2023-04-23T15:41:54.712Z,52.10
2023-04-23T15:44:23.983Z,52.40
2023-04-23T15:46:53.708Z,52.80
2023-04-23T15:49:22.011Z,53.00
2023-04-23T15:51:50.404Z,53.20
2023-04-23T15:54:18.770Z,53.30
2023-04-23T15:56:47.099Z,53.40
2023-04-23T15:59:15.483Z,53.20
2023-04-23T16:01:43.992Z,53.40
2023-04-23T16:04:14.035Z,53.40
2023-04-23T16:06:42.460Z,54.00
2023-04-23T16:09:10.738Z,53.50
2023-04-23T16:11:39.782Z,53.70
2023-04-23T16:14:09.457Z,53.80
2023-04-23T16:16:38.800Z,53.80
2023-04-23T16:19:07.304Z,53.90
2023-04-23T16:21:37.100Z,54.00
2023-04-23T16:24:07.698Z,53.90
2023-04-23T16:26:37.539Z,53.80
2023-04-23T16:29:21.396Z,53.80
2023-04-23T16:31:50.859Z,53.90
2023-04-23T16:34:19.231Z,53.90
2023-04-23T16:36:49.010Z,53.90
2023-04-23T16:39:17.389Z,54.10
2023-04-23T16:41:45.947Z,54.30
2023-04-23T16:44:14.334Z,54.50
2023-04-23T16:46:48.556Z,54.90
2023-04-23T16:49:17.096Z,55.10
2023-04-23T16:51:45.366Z,55.50
2023-04-23T16:54:15.180Z,55.70
2023-04-23T16:56:45.410Z,55.80
2023-04-23T16:59:15.379Z,55.80
2023-04-23T17:01:43.835Z,55.90
2023-04-23T17:04:12.436Z,56.40
2023-04-23T17:06:40.980Z,56.50
2023-04-23T17:09:10.465Z,56.70
2023-04-23T17:11:40.172Z,56.70
2023-04-23T17:14:08.506Z,57.10
2023-04-23T17:16:36.953Z,57.50
2023-04-23T17:19:05.366Z,57.90
2023-04-23T17:21:34.495Z,58.30
2023-04-23T17:24:03.327Z,58.60
2023-04-23T17:26:31.628Z,58.40
2023-04-23T17:29:01.377Z,58.80
2023-04-23T17:31:30.463Z,58.90
2023-04-23T17:33:59.258Z,59.20
2023-04-23T17:36:27.688Z,59.00
2023-04-23T17:38:56.136Z,59.40
2023-04-23T17:41:24.640Z,59.30
2023-04-23T17:43:53.349Z,59.40
2023-04-23T17:46:23.182Z,59.40
2023-04-23T17:48:51.661Z,59.50
2023-04-23T17:51:21.571Z,59.40
2023-04-23T17:53:50.995Z,59.70
2023-04-23T17:56:19.364Z,59.60
2023-04-23T17:58:47.778Z,59.60
2023-04-23T18:01:17.803Z,59.70
2023-04-23T18:03:49.174Z,59.70
2023-04-23T18:06:17.709Z,59.80
2023-04-23T18:08:46.170Z,59.90
2023-04-23T18:11:14.582Z,60.00
2023-04-23T18:13:43.525Z,60.10
2023-04-23T18:16:11.900Z,60.20
2023-04-23T18:18:40.215Z,60.20
2023-04-23T18:21:10.238Z,60.50
2023-04-23T18:23:39.712Z,60.80
2023-04-23T18:26:10.027Z,61.10
2023-04-23T18:28:38.808Z,61.20
2023-04-23T18:31:07.546Z,61.30
2023-04-23T18:33:44.287Z,61.50
2023-04-23T18:36:22.255Z,61.70
2023-04-23T18:38:50.867Z,61.80
2023-04-23T18:41:21.952Z,62.10
2023-04-23T18:43:53.379Z,62.30
2023-04-23T18:46:23.250Z,62.40
2023-04-23T18:49:00.426Z,62.50
2023-04-23T18:51:44.051Z,62.70
2023-04-23T18:54:15.008Z,63.30
2023-04-23T18:56:43.542Z,64.00
2023-04-23T18:59:11.874Z,63.70
2023-04-23T19:01:43.525Z,63.60
2023-04-23T19:04:12.197Z,64.00
2023-04-23T19:06:42.329Z,65.10
2023-04-23T19:09:10.910Z,65.70
2023-04-23T19:11:39.327Z,65.70
2023-04-23T19:14:07.789Z,65.70
2023-04-23T19:16:36.353Z,65.60
2023-04-23T19:19:04.885Z,65.70
2023-04-23T19:21:33.750Z,65.80
2023-04-23T19:24:03.663Z,65.80
2023-04-23T19:26:31.986Z,66.00
2023-04-23T19:29:00.516Z,66.10
2023-04-23T19:31:30.309Z,66.40
2023-04-23T19:33:58.620Z,67.00
2023-04-23T19:36:28.625Z,67.20
2023-04-23T19:38:57.174Z,67.40
2023-04-23T19:41:27.163Z,67.20
2023-04-23T19:43:55.616Z,67.70
2023-04-23T19:46:23.977Z,68.00
2023-04-23T19:48:52.277Z,67.90
2023-04-23T19:51:22.084Z,68.10
2023-04-23T19:53:50.363Z,68.20
2023-04-23T19:56:18.645Z,67.70
2023-04-23T19:58:50.544Z,67.70
2023-04-23T20:01:19.383Z,67.70
2023-04-23T20:03:50.876Z,67.50
2023-04-23T20:06:19.281Z,67.60
2023-04-23T20:09:06.231Z,67.50
2023-04-23T20:11:34.849Z,67.30
2023-04-23T20:14:05.326Z,67.40
2023-04-23T20:16:34.484Z,67.40
2023-04-23T20:19:03.559Z,67.80
2023-04-23T20:21:31.932Z,67.70
2023-04-23T20:24:00.299Z,67.70
2023-04-23T20:26:28.640Z,68.10
2023-04-23T20:28:57.556Z,68.30
2023-04-23T20:31:27.425Z,68.90
2023-04-23T20:33:56.119Z,68.80
2023-04-23T20:36:29.014Z,68.80
2023-04-23T20:38:58.098Z,68.70
2023-04-23T20:41:27.267Z,68.70
2023-04-23T20:43:55.583Z,69.00
2023-04-23T20:46:24.409Z,68.90
2023-04-23T20:48:54.255Z,69.00
2023-04-23T20:51:22.602Z,69.00
2023-04-23T20:53:51.510Z,69.00
2023-04-23T20:56:20.120Z,69.60
2023-04-23T20:58:48.745Z,70.00
2023-04-23T21:01:18.046Z,70.20
2023-04-23T21:03:46.581Z,71.00
2023-04-23T21:06:16.643Z,70.80
2023-04-23T21:08:44.965Z,70.60
2023-04-23T21:11:16.408Z,70.80
2023-04-23T21:13:44.954Z,70.60
2023-04-23T21:16:13.819Z,70.60
2023-04-23T21:18:42.438Z,70.60
2023-04-23T21:21:10.846Z,70.60
2023-04-23T21:23:40.731Z,70.60
2023-04-23T21:26:09.179Z,70.70
2023-04-23T21:28:38.025Z,70.70
2023-04-23T21:31:10.873Z,70.80
2023-04-23T21:33:39.423Z,70.70
2023-04-23T21:36:08.196Z,70.80
2023-04-23T21:38:36.541Z,70.80
2023-04-23T21:41:07.730Z,70.80
2023-04-23T21:43:36.574Z,70.80
2023-04-23T21:46:07.590Z,70.80
2023-04-23T21:48:35.939Z,70.90
2023-04-23T21:51:05.128Z,71.10
2023-04-23T21:53:33.418Z,71.20
2023-04-23T21:56:01.802Z,72.10
2023-04-23T21:58:32.642Z,71.50
2023-04-23T22:01:00.948Z,71.50
2023-04-23T22:03:37.719Z,71.50
2023-04-23T22:06:08.452Z,71.80
2023-04-23T22:08:38.265Z,71.60
2023-04-23T22:11:07.055Z,71.60
2023-04-23T22:13:37.271Z,71.60
2023-04-23T22:16:13.381Z,71.90
2023-04-23T22:18:49.040Z,71.80
2023-04-23T22:21:17.362Z,71.60
2023-04-23T22:23:45.610Z,71.60
2023-04-23T22:26:14.057Z,71.50
2023-04-23T22:28:44.401Z,71.50
2023-04-23T22:31:12.847Z,71.60
2023-04-23T22:33:41.130Z,71.50
2023-04-23T22:36:09.643Z,71.50
2023-04-23T22:38:38.028Z,71.50
2023-04-23T22:41:06.886Z,71.40
2023-04-23T22:43:35.185Z,71.40
2023-04-23T22:46:05.147Z,71.30
2023-04-23T22:48:33.774Z,71.40
2023-04-23T22:51:04.608Z,71.20
2023-04-23T22:53:33.475Z,71.20
2023-04-23T22:56:02.062Z,71.20
2023-04-23T22:58:30.460Z,71.20
2023-04-23T23:00:58.788Z,71.20
2023-04-23T23:03:28.581Z,71.30
2023-04-23T23:05:56.970Z,71.30
2023-04-23T23:08:25.286Z,71.30
2023-04-23T23:10:53.630Z,71.30
2023-04-23T23:13:21.872Z,71.80
2023-04-23T23:15:50.226Z,71.80
2023-04-23T23:18:18.613Z,71.80
2023-04-23T23:20:48.362Z,71.80
2023-04-23T23:23:16.735Z,71.80
2023-04-23T23:25:44.984Z,71.90
2023-04-23T23:28:13.321Z,71.80
2023-04-23T23:30:41.952Z,72.00
2023-04-23T23:33:10.295Z,71.90
2023-04-23T23:35:38.552Z,71.90
2023-04-23T23:38:08.326Z,71.90
2023-04-23T23:40:36.844Z,72.00
2023-04-23T23:43:05.134Z,72.00
2023-04-23T23:45:33.537Z,72.00
2023-04-23T23:48:02.143Z,72.00
2023-04-23T23:50:30.655Z,72.30
2023-04-23T23:52:59.364Z,72.40
2023-04-23T23:55:29.233Z,72.50
2023-04-23T23:57:57.651Z,72.40
